Time;durP1;ratioP1;P1;durP2;ratioP2;P2;SDS_P1;SDS_P2;PMS_P1;PMS_P2;Temp;Humidity;BMP_temperature;BMP_pressure;BME280_temperature;BME280_humidity;BME280_pressure;Samples;Min_cycle;Max_cycle;Signal;HPM_P1;HPM_P2
2020/12/21 00:00:14;;;;;;;14.40;3.60;;;;;;;7.67;76.68;100266.28;4404538;32;20034;-74
2020/12/21 00:02:40;;;;;;;11.93;2.90;;;;;;;7.62;76.84;100277.97;4410144;32;20054;-72
2020/12/21 00:05:06;;;;;;;11.12;3.22;;;;;;;7.62;76.47;100266.75;4408486;32;20053;-75
2020/12/21 00:07:32;;;;;;;14.38;4.65;;;;;;;7.61;76.38;100260.34;4406030;32;20018;-73
2020/12/21 00:09:58;;;;;;;21.52;4.35;;;;;;;7.58;76.34;100261.22;4409589;32;20034;-73
2020/12/21 00:12:24;;;;;;;17.27;4.20;;;;;;;7.59;76.71;100262.81;4409604;32;20018;-74
2020/12/21 00:14:49;;;;;;;15.90;5.05;;;;;;;7.61;76.63;100254.00;4407547;32;20404;-73
2020/12/21 00:17:15;;;;;;;18.58;5.43;;;;;;;7.62;76.56;100255.56;4407884;32;20026;-74
2020/12/21 00:19:41;;;;;;;18.05;4.50;;;;;;;7.56;76.98;100244.09;4409572;32;20026;-74
2020/12/21 00:22:06;;;;;;;14.98;5.00;;;;;;;7.55;77.07;100245.28;4407298;32;20516;-73
2020/12/21 00:24:32;;;;;;;13.32;4.30;;;;;;;7.53;77.15;100244.94;4408840;32;20446;-74
2020/12/21 00:26:58;;;;;;;14.70;4.72;;;;;;;7.55;76.84;100252.91;4409826;32;20106;-75
2020/12/21 00:29:24;;;;;;;13.60;4.72;;;;;;;7.41;77.20;100255.97;4406256;32;20492;-73
2020/12/21 00:31:50;;;;;;;20.20;4.70;;;;;;;7.39;77.69;100253.59;4409254;32;20423;-75
2020/12/21 00:34:17;;;;;;;14.15;4.20;;;;;;;7.43;77.58;100257.09;4407193;32;20112;-74
2020/12/21 00:36:47;;;;;;;23.15;5.53;;;;;;;7.42;77.34;100249.12;4411284;32;20435;-74
2020/12/21 00:39:13;;;;;;;17.90;5.53;;;;;;;7.41;77.72;100250.37;4409309;32;20419;-75
2020/12/21 00:41:41;;;;;;;19.30;4.90;;;;;;;7.42;77.70;100243.53;4411276;32;20529;-74
2020/12/21 00:44:07;;;;;;;18.50;4.78;;;;;;;7.31;77.94;100254.97;4413634;32;20062;-74
2020/12/21 00:46:33;;;;;;;14.23;4.10;;;;;;;7.45;77.68;100251.88;4413709;32;20469;-73
2020/12/21 00:49:00;;;;;;;21.60;4.43;;;;;;;7.45;77.68;100242.69;4406858;32;20425;-75
2020/12/21 00:51:26;;;;;;;19.27;5.25;;;;;;;7.43;77.75;100239.53;4404703;32;20075;-74
2020/12/21 00:53:52;;;;;;;21.33;6.15;;;;;;;7.48;77.51;100236.22;4405426;32;20090;-75
2020/12/21 00:56:20;;;;;;;15.00;4.43;;;;;;;7.46;77.64;100231.06;4413499;32;20045;-75
2020/12/21 00:58:46;;;;;;;17.33;4.75;;;;;;;7.46;77.95;100227.50;4406615;32;20103;-75
2020/12/21 01:01:14;;;;;;;20.48;5.55;;;;;;;7.28;78.44;100236.22;4409262;32;20070;-75
2020/12/21 01:03:40;;;;;;;20.02;5.20;;;;;;;7.36;78.14;100239.66;4411141;32;20022;-75
2020/12/21 01:06:06;;;;;;;16.15;5.25;;;;;;;7.46;77.82;100225.47;4414914;32;20060;-74
2020/12/21 01:08:34;;;;;;;14.82;5.15;;;;;;;7.52;77.68;100234.16;4409593;32;20114;-74
2020/12/21 01:11:01;;;;;;;14.60;4.28;;;;;;;7.47;77.21;100240.25;4407571;32;20066;-76
2020/12/21 01:13:27;;;;;;;20.85;5.60;;;;;;;7.42;77.90;100237.94;4410499;32;20221;-75
2020/12/21 01:15:53;;;;;;;19.20;5.18;;;;;;;7.46;78.01;100228.25;4409546;32;20029;-74
2020/12/21 01:18:19;;;;;;;17.45;4.82;;;;;;;7.52;77.63;100231.38;4410897;32;20034;-75
2020/12/21 01:20:45;;;;;;;16.55;5.85;;;;;;;7.46;77.82;100224.69;4412021;32;20480;-74
2020/12/21 01:23:10;;;;;;;18.37;5.43;;;;;;;7.49;77.77;100216.19;4411568;32;20387;-73
2020/12/21 01:25:36;;;;;;;18.08;5.25;;;;;;;7.51;77.38;100226.97;4413364;32;20124;-75
2020/12/21 01:28:04;;;;;;;16.77;5.37;;;;;;;7.42;77.36;100235.94;4409980;32;20517;-74
2020/12/21 01:30:29;;;;;;;19.70;6.20;;;;;;;7.38;77.56;100229.63;4409993;32;20025;-75
2020/12/21 01:32:55;;;;;;;27.70;6.00;;;;;;;7.46;77.57;100233.09;4408093;32;20057;-73
2020/12/21 01:35:20;;;;;;;18.27;6.00;;;;;;;7.33;78.15;100229.34;4411174;32;20070;-75
2020/12/21 01:37:46;;;;;;;23.15;5.72;;;;;;;7.44;78.04;100222.31;4412038;32;20074;-73
2020/12/21 01:40:12;;;;;;;30.98;6.40;;;;;;;7.54;77.49;100231.72;4409929;32;20042;-75
2020/12/21 01:42:38;;;;;;;20.70;5.85;;;;;;;7.49;77.89;100227.41;4408435;32;20128;-74
2020/12/21 01:45:06;;;;;;;23.50;5.97;;;;;;;7.41;77.50;100231.56;4412190;32;20053;-76
2020/12/21 01:47:32;;;;;;;16.35;5.53;;;;;;;7.58;77.42;100229.66;4410287;32;20042;-75
2020/12/21 01:49:58;;;;;;;18.02;6.37;;;;;;;7.64;76.77;100223.09;4412211;32;20051;-73
2020/12/21 01:52:24;;;;;;;13.57;6.25;;;;;;;7.64;77.16;100227.94;4409331;32;20035;-75
2020/12/21 01:54:50;;;;;;;17.75;6.25;;;;;;;7.69;77.28;100221.81;4412091;32;20458;-75
2020/12/21 01:57:16;;;;;;;18.65;5.53;;;;;;;7.81;76.93;100221.94;4405775;32;20077;-73
2020/12/21 01:59:42;;;;;;;20.35;5.78;;;;;;;7.76;76.67;100218.84;4406044;32;20068;-73
2020/12/21 02:02:08;;;;;;;18.65;5.82;;;;;;;7.78;76.69;100216.41;4408452;32;20652;-76
2020/12/21 02:04:35;;;;;;;18.55;5.65;;;;;;;7.49;77.51;100218.22;4410576;32;20026;-73
2020/12/21 02:07:02;;;;;;;18.55;5.25;;;;;;;7.25;78.34;100208.31;4407084;32;20074;-73
2020/12/21 02:09:28;;;;;;;24.77;6.40;;;;;;;7.40;77.79;100204.78;4411010;32;20026;-75
2020/12/21 02:11:54;;;;;;;17.60;5.93;;;;;;;7.33;78.28;100204.94;4408522;32;20078;-75
2020/12/21 02:14:20;;;;;;;21.92;5.87;;;;;;;7.38;78.37;100209.25;4409287;32;20021;-75
2020/12/21 02:16:45;;;;;;;20.10;5.28;;;;;;;7.42;78.38;100218.34;4411851;32;20123;-75
2020/12/21 02:19:11;;;;;;;17.05;4.75;;;;;;;7.48;77.62;100211.03;4406281;32;20453;-73
2020/12/21 02:21:37;;;;;;;21.48;5.37;;;;;;;7.38;78.40;100204.44;4411131;32;20068;-75
2020/12/21 02:24:03;;;;;;;17.02;4.50;;;;;;;7.56;77.50;100201.28;4412691;32;20057;-74
2020/12/21 02:26:29;;;;;;;19.15;4.35;;;;;;;7.68;77.00;100197.84;4411789;32;20468;-73
2020/12/21 02:28:57;;;;;;;16.80;4.82;;;;;;;7.60;77.24;100193.59;4409822;32;20041;-75
2020/12/21 02:31:23;;;;;;;19.83;4.90;;;;;;;7.66;77.53;100184.25;4412102;32;20046;-74
2020/12/21 02:33:49;;;;;;;15.55;4.85;;;;;;;7.72;77.27;100176.13;4415966;32;20026;-74
2020/12/21 02:36:15;;;;;;;14.38;4.12;;;;;;;7.72;77.01;100167.72;4414503;32;20376;-75
2020/12/21 02:38:41;;;;;;;14.07;4.62;;;;;;;7.67;77.30;100162.66;4409701;32;20086;-73
2020/12/21 02:41:07;;;;;;;17.70;4.62;;;;;;;7.73;76.73;100160.91;4413217;32;20088;-74
2020/12/21 02:43:33;;;;;;;19.45;5.62;;;;;;;7.82;76.68;100150.69;4413842;32;20038;-73
2020/12/21 02:45:59;;;;;;;15.77;4.72;;;;;;;7.86;76.35;100145.03;4415384;32;20146;-73
2020/12/21 02:48:24;;;;;;;13.50;4.43;;;;;;;7.89;75.93;100132.94;4404464;32;20060;-74
2020/12/21 02:50:50;;;;;;;18.77;4.62;;;;;;;7.97;75.70;100145.56;4408535;32;20031;-75
2020/12/21 02:53:16;;;;;;;25.62;4.97;;;;;;;7.90;76.72;100146.53;4413661;32;20061;-75
2020/12/21 02:55:43;;;;;;;17.65;5.37;;;;;;;7.64;77.48;100133.50;4407614;32;20077;-74
2020/12/21 02:58:08;;;;;;;15.25;4.95;;;;;;;7.54;77.81;100126.13;4413014;32;20449;-74
2020/12/21 03:00:34;;;;;;;20.12;5.20;;;;;;;7.68;77.71;100142.63;4408047;32;20092;-72
2020/12/21 03:03:01;;;;;;;17.45;5.35;;;;;;;7.44;78.30;100146.75;4406668;32;20041;-74
2020/12/21 03:05:26;;;;;;;18.83;5.43;;;;;;;7.39;79.03;100144.44;4412354;32;20081;-74
2020/12/21 03:07:52;;;;;;;16.80;5.62;;;;;;;7.57;78.15;100142.06;4412218;32;20079;-75
2020/12/21 03:10:18;;;;;;;23.35;6.95;;;;;;;7.36;78.58;100139.69;4412427;32;20034;-71
2020/12/21 03:12:43;;;;;;;16.67;5.40;;;;;;;7.45;78.34;100139.09;4409223;32;20140;-73
2020/12/21 03:15:09;;;;;;;18.48;5.57;;;;;;;7.39;78.48;100140.84;4412331;32;20092;-74
2020/12/21 03:17:35;;;;;;;19.20;5.53;;;;;;;7.52;78.61;100133.38;4411172;32;20427;-75
2020/12/21 03:20:00;;;;;;;12.93;4.93;;;;;;;7.61;78.02;100150.38;4410999;32;20234;-74
2020/12/21 03:22:26;;;;;;;21.23;6.00;;;;;;;7.68;77.78;100153.03;4410267;32;20081;-73
2020/12/21 03:24:52;;;;;;;12.68;5.00;;;;;;;7.69;77.54;100140.59;4411720;32;20086;-74
2020/12/21 03:27:18;;;;;;;18.67;6.05;;;;;;;7.76;77.03;100144.03;4411846;32;20078;-75
2020/12/21 03:29:44;;;;;;;14.50;5.80;;;;;;;7.85;76.95;100135.03;4409429;32;20042;-73
2020/12/21 03:32:10;;;;;;;21.67;6.57;;;;;;;7.91;76.44;100136.09;4412948;32;20386;-72
2020/12/21 03:34:35;;;;;;;20.85;6.10;;;;;;;7.85;75.90;100137.81;4412124;32;20146;-76
2020/12/21 03:37:01;;;;;;;13.75;6.03;;;;;;;7.82;75.70;100128.28;4405487;32;20416;-75
2020/12/21 03:39:27;;;;;;;13.80;6.00;;;;;;;7.82;76.40;100131.09;4413222;32;20026;-74
2020/12/21 03:41:53;;;;;;;22.13;6.10;;;;;;;7.80;76.34;100127.91;4411628;32;20091;-73
2020/12/21 03:44:18;;;;;;;23.77;6.50;;;;;;;7.91;76.03;100111.66;4408682;32;20081;-72
2020/12/21 03:46:44;;;;;;;24.55;7.25;;;;;;;7.99;75.60;100121.50;4412421;32;21224;-75
2020/12/21 03:49:10;;;;;;;18.75;6.25;;;;;;;8.06;75.41;100114.91;4408897;32;20414;-74
2020/12/21 03:51:35;;;;;;;18.08;6.72;;;;;;;8.06;75.53;100115.72;4409641;32;20161;-75
2020/12/21 03:54:01;;;;;;;21.35;6.50;;;;;;;8.10;75.69;100108.00;4411707;32;20112;-74
2020/12/21 03:56:26;;;;;;;25.60;7.18;;;;;;;8.19;75.54;100104.59;4410864;32;20212;-74
2020/12/21 03:58:52;;;;;;;20.33;6.37;;;;;;;8.22;74.93;100105.75;4409562;32;20072;-74
2020/12/21 04:01:18;;;;;;;14.95;7.10;;;;;;;8.08;75.09;100101.28;4410724;32;20061;-73
2020/12/21 04:03:43;;;;;;;19.08;6.65;;;;;;;8.17;75.06;100093.81;4412036;32;20120;-76
2020/12/21 04:06:09;;;;;;;18.20;6.93;;;;;;;8.25;75.25;100086.06;4406890;32;20142;-73
2020/12/21 04:08:34;;;;;;;18.35;6.28;;;;;;;8.25;74.88;100083.25;4411108;32;20197;-74
2020/12/21 04:11:00;;;;;;;22.80;7.60;;;;;;;8.20;75.05;100087.34;4411471;32;20030;-75
2020/12/21 04:13:26;;;;;;;15.43;6.47;;;;;;;8.22;75.51;100072.91;4411314;32;20634;-73
2020/12/21 04:15:53;;;;;;;18.62;6.25;;;;;;;8.15;75.32;100078.69;4409143;32;20089;-75
2020/12/21 04:18:19;;;;;;;17.62;6.07;;;;;;;8.14;75.83;100072.28;4410317;32;20094;-74
2020/12/21 04:20:46;;;;;;;18.45;6.47;;;;;;;8.16;75.53;100061.41;4408379;32;20143;-76
2020/12/21 04:23:11;;;;;;;18.40;6.65;;;;;;;8.07;75.30;100052.84;4411023;32;20085;-76
2020/12/21 04:25:37;;;;;;;19.23;6.82;;;;;;;8.15;76.07;100036.63;4410294;32;20023;-74
2020/12/21 04:28:03;;;;;;;18.52;6.85;;;;;;;8.25;75.28;100038.41;4402888;32;20099;-75
2020/12/21 04:30:28;;;;;;;19.95;6.25;;;;;;;8.29;74.99;100036.31;4408415;32;20066;-75
2020/12/21 04:32:54;;;;;;;16.80;6.03;;;;;;;8.26;75.29;100039.19;4408028;32;20097;-74
2020/12/21 04:35:20;;;;;;;21.00;6.22;;;;;;;8.31;75.18;100039.44;4412097;32;20418;-76
2020/12/21 04:37:45;;;;;;;19.08;6.53;;;;;;;8.27;75.49;100029.56;4405604;32;20125;-73
2020/12/21 04:40:11;;;;;;;18.42;6.40;;;;;;;8.29;75.30;100032.72;4412453;32;20030;-75
2020/12/21 04:42:53;;;;;;;13.23;5.40;;;;;;;8.19;75.62;100037.31;4405505;32;20561;-73
2020/12/21 04:45:20;;;;;;;18.70;5.20;;;;;;;8.41;75.44;100026.38;4409186;32;20033;-75
2020/12/21 04:47:47;;;;;;;17.87;5.05;;;;;;;8.39;75.16;100017.63;4409849;32;21228;-75
2020/12/21 04:50:16;;;;;;;18.77;4.93;;;;;;;8.27;75.17;100010.72;4408041;32;20046;-75
2020/12/21 04:52:50;;;;;;;14.63;5.25;;;;;;;8.40;75.47;100013.63;4407144;32;20116;-76
2020/12/21 04:55:18;;;;;;;18.63;4.43;;;;;;;8.53;75.03;99997.62;4406823;32;20104;-74
2020/12/21 04:58:02;;;;;;;17.33;4.80;;;;;;;8.54;73.96;99985.97;4404326;32;20363;-73
2020/12/21 05:00:31;;;;;;;15.48;3.85;;;;;;;8.56;74.21;99977.87;4408352;32;20065;-75
2020/12/21 05:02:56;;;;;;;13.75;4.45;;;;;;;8.46;74.10;99987.38;4406049;32;20431;-73
2020/12/21 05:13:34;;;;;;;19.15;4.62;;;;;;;8.98;73.90;99959.03;3985879;32;15022449;-75
2020/12/21 05:16:01;;;;;;;14.00;5.10;;;;;;;8.98;73.90;99959.03;4437407;32;20022;-76
2020/12/21 05:21:05;;;;;;;12.23;4.37;;;;;;;8.72;75.16;99958.22;3956755;32;15723430;-74
2020/12/21 05:23:32;;;;;;;11.45;4.03;;;;;;;8.68;75.08;99946.28;4422511;32;20030;-73
2020/12/21 05:26:07;;;;;;;14.02;4.20;;;;;;;8.64;74.57;99945.63;4430402;32;20057;-76
2020/12/21 05:28:34;;;;;;;24.90;4.75;;;;;;;8.64;74.68;99934.41;4436051;32;20022;-75
2020/12/21 05:31:02;;;;;;;11.70;4.03;;;;;;;8.73;74.86;99926.13;4439205;32;20406;-72
2020/12/21 05:33:28;;;;;;;17.62;4.43;;;;;;;8.79;74.92;99915.91;4437544;32;20087;-75
2020/12/21 05:36:03;;;;;;;15.63;4.53;;;;;;;8.90;74.85;99907.19;4421783;32;20030;-73
2020/12/21 05:38:29;;;;;;;13.38;4.40;;;;;;;8.99;74.20;99916.50;4421095;32;20068;-75
2020/12/21 05:41:17;;;;;;;17.00;4.70;;;;;;;9.07;74.17;99903.03;4417346;32;20063;-75
2020/12/21 05:43:45;;;;;;;18.30;4.40;;;;;;;9.18;73.87;99898.66;4422682;32;20063;-74
2020/12/21 05:48:52;;;;;;;18.85;5.05;;;;;;;9.66;72.14;99898.34;3983213;32;15029967;-73
2020/12/21 05:51:36;;;;;;;16.02;4.00;;;;;;;9.66;72.14;99901.06;4436421;32;20114;-73
2020/12/21 05:54:04;;;;;;;18.35;4.65;;;;;;;9.26;73.23;99893.59;4433454;32;20057;-74
2020/12/21 05:56:32;;;;;;;15.63;4.05;;;;;;;9.33;72.91;99882.91;4437036;32;20484;-73
2020/12/21 05:58:58;;;;;;;18.35;4.07;;;;;;;9.39;72.74;99885.97;4431665;32;20140;-76
2020/12/21 06:01:25;;;;;;;11.12;4.12;;;;;;;9.46;72.28;99874.50;4430492;32;20102;-74
2020/12/21 06:03:52;;;;;;;12.75;4.03;;;;;;;9.48;71.76;99864.37;4435092;32;20085;-74
2020/12/21 06:06:28;;;;;;;17.33;4.97;;;;;;;9.47;71.54;99865.63;4434584;32;20036;-75
2020/12/21 06:08:57;;;;;;;16.05;4.43;;;;;;;9.39;72.33;99858.66;4432682;32;20412;-74
2020/12/21 06:14:09;;;;;;;11.45;3.62;;;;;;;9.67;72.03;99849.25;3987852;32;15026469;-75
2020/12/21 06:16:36;;;;;;;12.02;3.72;;;;;;;9.67;72.03;99849.25;4441253;32;20094;-75
2020/12/21 06:21:48;;;;;;;11.77;3.35;;;;;;;9.74;72.56;99845.44;3987747;32;15024463;-73
2020/12/21 06:26:55;;;;;;;21.12;4.87;;;;;;;9.83;71.87;99849.13;3985703;32;15024774;-73
2020/12/21 06:29:23;;;;;;;19.92;4.65;;;;;;;9.83;71.87;99849.13;4436998;32;20369;-73
2020/12/21 06:31:54;;;;;;;18.95;4.40;;;;;;;9.43;72.89;99847.31;4438235;32;20065;-73
2020/12/21 06:37:10;;;;;;;23.77;5.30;;;;;;;9.79;71.98;99842.06;3986943;32;15022892;-73
2020/12/21 06:39:37;;;;;;;25.58;5.50;;;;;;;9.79;71.98;99842.06;4435502;32;20439;-73
2020/12/21 06:42:13;;;;;;;24.15;6.22;;;;;;;9.30;73.17;99830.47;4437657;32;20395;-74
2020/12/21 06:44:41;;;;;;;20.75;6.72;;;;;;;9.27;73.91;99831.38;4438936;32;20038;-74
2020/12/21 06:47:08;;;;;;;20.77;6.37;;;;;;;9.25;74.20;99816.22;4435919;32;20613;-73
2020/12/21 06:49:34;;;;;;;19.67;6.90;;;;;;;9.31;74.37;99823.66;4435437;32;20043;-73
2020/12/21 06:52:00;;;;;;;21.20;6.45;;;;;;;9.38;74.19;99822.59;4435509;32;20048;-74
2020/12/21 06:54:26;;;;;;;20.90;6.18;;;;;;;9.47;74.53;99817.09;4436915;32;20085;-73
2020/12/21 06:56:52;;;;;;;14.05;6.55;;;;;;;9.48;75.37;99796.97;4433926;32;20033;-74
2020/12/21 06:59:20;;;;;;;18.67;6.50;;;;;;;9.46;75.80;99802.28;4437547;32;20045;-74
2020/12/21 07:01:48;;;;;;;21.23;7.12;;;;;;;9.17;76.28;99795.25;4437613;32;20064;-75
2020/12/21 07:04:18;;;;;;;25.02;6.72;;;;;;;9.23;76.56;99783.00;4435605;32;20074;-74
2020/12/21 07:06:45;;;;;;;23.08;7.60;;;;;;;9.13;76.47;99792.56;4437929;32;20018;-74
2020/12/21 07:09:13;;;;;;;27.13;7.65;;;;;;;9.07;77.34;99790.78;4435468;32;20354;-74
2020/12/21 07:11:40;;;;;;;26.37;7.72;;;;;;;9.00;77.26;99788.22;4432624;32;20064;-74
2020/12/21 07:14:07;;;;;;;20.58;6.18;;;;;;;9.00;77.91;99772.16;4434930;32;20100;-74
2020/12/21 07:16:33;;;;;;;19.52;6.80;;;;;;;8.96;77.78;99765.09;4437541;32;20089;-74
2020/12/21 07:18:59;;;;;;;20.90;7.18;;;;;;;8.96;78.59;99771.47;4431967;32;20509;-74
2020/12/21 07:21:25;;;;;;;23.17;7.80;;;;;;;9.02;79.08;99758.44;4439483;32;20068;-74
2020/12/21 07:23:51;;;;;;;16.98;7.07;;;;;;;9.10;79.00;99753.38;4439419;32;20104;-73
2020/12/21 07:26:17;;;;;;;19.55;7.72;;;;;;;9.21;78.93;99751.00;4435593;32;20409;-74
2020/12/21 07:28:45;;;;;;;21.27;8.13;;;;;;;9.28;79.09;99747.94;4437890;32;20120;-74
2020/12/21 07:31:16;;;;;;;22.70;7.05;;;;;;;9.35;79.00;99740.06;4439011;32;21177;-74
2020/12/21 07:33:58;;;;;;;20.67;6.12;;;;;;;9.40;78.97;99741.50;4429358;32;20076;-74
2020/12/21 07:36:27;;;;;;;19.55;6.45;;;;;;;9.45;78.55;99740.94;4418896;32;20483;-74
2020/12/21 07:39:03;;;;;;;16.75;6.03;;;;;;;9.49;78.17;99739.59;4418264;32;20093;-74
2020/12/21 07:41:30;;;;;;;19.77;6.97;;;;;;;9.47;78.22;99732.84;4420955;32;20153;-74
2020/12/21 07:44:07;;;;;;;16.98;5.82;;;;;;;9.34;78.30;99724.47;4420654;32;20074;-74
2020/12/21 07:46:45;;;;;;;22.27;6.45;;;;;;;9.30;77.40;99721.00;4421231;32;20469;-74
2020/12/21 07:49:12;;;;;;;18.08;6.60;;;;;;;9.23;77.81;99709.22;4406653;32;20091;-73
2020/12/21 07:51:42;;;;;;;15.65;5.90;;;;;;;9.21;78.57;99708.91;4411683;32;20390;-74
2020/12/21 07:54:08;;;;;;;29.63;8.27;;;;;;;9.14;78.37;99704.31;4410014;32;20097;-75
2020/12/21 07:56:34;;;;;;;19.37;6.45;;;;;;;9.08;78.80;99702.56;4411223;32;20143;-73
2020/12/21 07:59:18;;;;;;;17.33;6.43;;;;;;;9.14;79.99;99687.47;4411420;32;20026;-74
2020/12/21 08:01:45;;;;;;;23.23;8.02;;;;;;;9.20;80.11;99694.09;4409778;32;20014;-74
2020/12/21 08:04:16;;;;;;;22.23;6.93;;;;;;;9.18;79.48;99693.75;4409806;32;20038;-75
2020/12/21 08:06:42;;;;;;;21.58;7.78;;;;;;;9.15;78.76;99677.03;4415805;32;20074;-74
2020/12/21 08:09:09;;;;;;;19.48;7.30;;;;;;;9.12;79.96;99673.13;4408086;32;20115;-74
2020/12/21 08:11:36;;;;;;;17.90;7.87;;;;;;;9.10;79.48;99675.59;4412175;32;20085;-73
2020/12/21 08:14:03;;;;;;;22.42;8.27;;;;;;;9.04;79.62;99671.00;4412424;32;20126;-74
2020/12/21 08:16:29;;;;;;;16.73;7.20;;;;;;;9.07;80.63;99670.91;4414115;32;20038;-74
2020/12/21 08:18:55;;;;;;;21.52;8.00;;;;;;;9.07;80.64;99665.28;4407390;32;20069;-74
2020/12/21 08:21:23;;;;;;;20.70;9.02;;;;;;;9.14;81.01;99659.41;4412902;32;20095;-73
2020/12/21 08:23:52;;;;;;;22.75;7.75;;;;;;;9.21;80.85;99645.13;4409979;32;20057;-73
2020/12/21 08:26:18;;;;;;;20.48;8.43;;;;;;;9.23;81.50;99639.84;4415657;32;20524;-73
2020/12/21 08:28:44;;;;;;;16.23;8.30;;;;;;;9.27;81.92;99634.87;4412526;32;20064;-74
2020/12/21 08:31:15;;;;;;;23.17;8.55;;;;;;;9.28;81.83;99627.25;4408479;32;20800;-73
2020/12/21 08:33:43;;;;;;;15.32;7.78;;;;;;;9.30;82.10;99621.97;4411349;32;20073;-74
2020/12/21 08:36:29;;;;;;;19.20;8.65;;;;;;;9.32;82.70;99617.44;4415111;32;20080;-71
2020/12/21 08:39:05;;;;;;;13.02;7.05;;;;;;;9.36;82.89;99620.91;4407790;32;20104;-71
2020/12/21 08:41:35;;;;;;;19.85;7.97;;;;;;;9.28;82.76;99616.00;4405996;32;20063;-69
2020/12/21 08:44:03;;;;;;;16.00;7.37;;;;;;;9.27;83.12;99617.25;4413305;32;20484;-71
2020/12/21 08:46:29;;;;;;;16.17;7.47;;;;;;;9.28;84.25;99608.38;4408979;32;20098;-69
2020/12/21 08:48:54;;;;;;;13.88;7.32;;;;;;;9.27;84.29;99606.81;4408209;32;20406;-69
2020/12/21 08:51:21;;;;;;;16.05;7.30;;;;;;;9.29;84.46;99607.13;4410055;32;20407;-69
2020/12/21 08:53:46;;;;;;;18.80;7.87;;;;;;;9.14;83.08;99610.94;4413602;32;20030;-71
2020/12/21 08:56:13;;;;;;;15.82;8.10;;;;;;;9.12;84.41;99604.97;4408025;32;20453;-69
2020/12/21 08:58:39;;;;;;;14.38;7.72;;;;;;;9.15;85.20;99595.66;4408443;32;20078;-71
2020/12/21 09:01:06;;;;;;;17.20;7.80;;;;;;;9.24;86.08;99584.50;4410394;32;20471;-70
2020/12/21 09:03:32;;;;;;;14.48;7.62;;;;;;;9.32;86.20;99578.16;4406433;32;20103;-70
2020/12/21 09:05:58;;;;;;;16.70;8.18;;;;;;;9.34;85.54;99584.09;4409140;32;20054;-70
2020/12/21 09:08:24;;;;;;;15.38;8.23;;;;;;;9.38;85.88;99579.13;4406159;32;20065;-71
2020/12/21 09:10:49;;;;;;;15.80;7.85;;;;;;;9.41;85.38;99563.38;4410689;32;20026;-69
2020/12/21 09:13:15;;;;;;;15.75;8.32;;;;;;;9.44;85.38;99551.22;4411655;32;20101;-70
2020/12/21 09:15:40;;;;;;;19.42;9.30;;;;;;;9.48;85.59;99538.63;4408792;32;20407;-69
2020/12/21 09:18:06;;;;;;;15.88;7.78;;;;;;;9.53;86.00;99537.25;4411691;32;20423;-69
2020/12/21 09:20:31;;;;;;;20.00;9.10;;;;;;;9.47;86.05;99527.84;4409406;32;20430;-70
2020/12/21 09:22:57;;;;;;;16.10;8.95;;;;;;;9.48;86.71;99526.63;4409870;32;20066;-72
2020/12/21 09:25:23;;;;;;;16.20;8.90;;;;;;;9.57;87.25;99524.62;4409085;32;20407;-72
2020/12/21 09:27:49;;;;;;;25.15;9.98;;;;;;;9.50;85.77;99508.06;4411926;32;20072;-69
2020/12/21 09:30:14;;;;;;;19.40;9.25;;;;;;;9.57;87.25;99509.78;4410359;32;20018;-70
2020/12/21 09:32:40;;;;;;;15.82;9.50;;;;;;;9.58;86.89;99495.28;4405963;32;20097;-70
2020/12/21 09:35:06;;;;;;;13.05;8.10;;;;;;;9.61;86.98;99483.13;4408192;32;20042;-70
2020/12/21 09:37:31;;;;;;;22.52;9.98;;;;;;;9.60;86.66;99484.38;4410010;32;20112;-71
2020/12/21 09:39:57;;;;;;;16.55;8.68;;;;;;;9.62;87.56;99478.31;4410189;32;20140;-69
2020/12/21 09:42:24;;;;;;;14.45;8.15;;;;;;;9.62;87.34;99470.69;4406249;32;20053;-72
2020/12/21 09:44:51;;;;;;;16.52;8.88;;;;;;;9.55;86.73;99462.50;4411293;32;20021;-70
2020/12/21 09:47:17;;;;;;;19.48;10.07;;;;;;;9.48;86.44;99460.00;4408894;32;20026;-70
2020/12/21 09:49:43;;;;;;;13.62;8.90;;;;;;;9.53;88.12;99458.63;4409523;32;20033;-71
2020/12/21 09:52:09;;;;;;;17.92;9.88;;;;;;;9.24;86.88;99461.00;4410949;32;20034;-71
2020/12/21 09:54:35;;;;;;;19.73;10.52;;;;;;;9.37;88.69;99447.63;4412180;32;20382;-71
2020/12/21 09:57:01;;;;;;;18.25;10.50;;;;;;;9.42;88.79;99447.03;4410877;32;20027;-70
2020/12/21 09:59:27;;;;;;;19.15;10.55;;;;;;;9.47;88.66;99438.78;4410781;32;20045;-69
2020/12/21 10:01:53;;;;;;;23.92;10.65;;;;;;;9.56;88.80;99440.84;4407448;32;20046;-70
2020/12/21 10:04:19;;;;;;;20.50;10.00;;;;;;;9.49;87.98;99435.50;4409443;32;20088;-70
2020/12/21 10:06:49;;;;;;;27.23;10.73;;;;;;;9.56;88.40;99427.59;4412766;32;20366;-70
2020/12/21 10:09:15;;;;;;;35.00;11.93;;;;;;;9.67;88.79;99408.25;4403957;32;20047;-72
2020/12/21 10:11:40;;;;;;;25.25;10.70;;;;;;;9.72;88.74;99407.66;4408175;32;20022;-70
2020/12/21 10:14:06;;;;;;;27.90;10.63;;;;;;;9.68;87.63;99401.41;4410066;32;20046;-70
2020/12/21 10:16:31;;;;;;;23.27;11.18;;;;;;;9.72;87.45;99393.59;4410386;32;20431;-70
2020/12/21 10:18:57;;;;;;;28.15;10.77;;;;;;;9.79;88.64;99395.34;4406441;32;20155;-69
2020/12/21 10:21:23;;;;;;;19.83;10.88;;;;;;;9.80;87.52;99389.25;4410440;32;20101;-70
2020/12/21 10:23:48;;;;;;;24.35;10.13;;;;;;;9.81;87.85;99379.56;4413080;32;20103;-71
2020/12/21 10:26:14;;;;;;;19.33;11.93;;;;;;;9.80;86.87;99380.84;4412232;32;20521;-71
2020/12/21 10:28:39;;;;;;;26.85;10.45;;;;;;;9.87;88.61;99374.91;4412210;32;20458;-71
2020/12/21 10:31:05;;;;;;;21.45;11.38;;;;;;;9.86;87.24;99372.56;4408053;32;20050;-69
2020/12/21 10:33:31;;;;;;;27.90;11.50;;;;;;;9.87;87.51;99369.28;4410608;32;20057;-71
2020/12/21 10:35:56;;;;;;;22.85;11.90;;;;;;;9.93;88.11;99361.81;4407676;32;20125;-71
2020/12/21 10:38:22;;;;;;;26.35;11.82;;;;;;;10.00;88.40;99347.44;4407072;32;20108;-69
2020/12/21 10:40:48;;;;;;;21.98;10.75;;;;;;;10.08;88.06;99339.50;4406559;32;20501;-69
2020/12/21 10:43:13;;;;;;;24.30;11.88;;;;;;;10.02;86.75;99339.31;4411129;32;20034;-70
2020/12/21 10:45:39;;;;;;;31.37;13.15;;;;;;;10.04;87.67;99334.00;4409581;32;20450;-70
2020/12/21 10:48:05;;;;;;;24.25;12.63;;;;;;;10.11;88.49;99335.75;4408518;32;20155;-70
2020/12/21 10:50:31;;;;;;;25.62;12.68;;;;;;;10.19;88.67;99324.97;4408554;32;20034;-71
2020/12/21 10:52:57;;;;;;;21.83;11.35;;;;;;;10.26;88.54;99316.22;4406638;32;20129;-70
2020/12/21 10:55:22;;;;;;;23.92;12.25;;;;;;;10.29;87.32;99302.00;4408428;32;20072;-71
2020/12/21 10:57:48;;;;;;;19.98;11.75;;;;;;;10.29;87.34;99306.84;4410801;32;20417;-70
2020/12/21 11:00:14;;;;;;;19.65;11.95;;;;;;;10.35;87.62;99297.31;4410436;32;20017;-71
2020/12/21 11:02:39;;;;;;;18.42;10.63;;;;;;;10.40;88.16;99302.28;4411209;32;20185;-70
2020/12/21 11:05:05;;;;;;;20.88;11.12;;;;;;;10.42;87.24;99299.00;4406770;32;20030;-69
2020/12/21 11:07:32;;;;;;;19.02;10.65;;;;;;;10.42;87.19;99291.34;4408376;32;20038;-69
2020/12/21 11:09:57;;;;;;;17.77;10.27;;;;;;;10.51;88.55;99284.91;4406423;32;20027;-71
2020/12/21 11:12:23;;;;;;;17.02;10.57;;;;;;;10.55;87.71;99280.69;4410287;32;20058;-70
2020/12/21 11:14:50;;;;;;;21.65;9.77;;;;;;;10.53;86.96;99273.97;4408931;32;20042;-70
2020/12/21 11:17:17;;;;;;;12.60;8.70;;;;;;;10.56;87.16;99275.84;4410266;32;20081;-69
2020/12/21 11:19:43;;;;;;;16.33;9.27;;;;;;;10.61;87.59;99264.72;4404416;32;20014;-71
2020/12/21 11:22:09;;;;;;;18.92;9.07;;;;;;;10.73;88.06;99254.50;4410834;32;20022;-74
2020/12/21 11:24:34;;;;;;;15.15;8.85;;;;;;;10.81;88.11;99258.56;4412865;32;20128;-73
2020/12/21 11:27:01;;;;;;;13.40;7.57;;;;;;;10.85;86.98;99247.91;4411055;32;20085;-70
2020/12/21 11:29:27;;;;;;;13.07;7.30;;;;;;;10.91;86.94;99240.38;4412069;32;20056;-72
2020/12/21 11:31:52;;;;;;;12.20;7.22;;;;;;;10.93;86.62;99235.06;4408432;32;20404;-72
2020/12/21 11:34:18;;;;;;;14.35;7.20;;;;;;;10.93;86.37;99227.41;4410314;32;20074;-71
2020/12/21 11:36:44;;;;;;;12.43;7.47;;;;;;;10.93;86.37;99218.16;4416082;32;20423;-70
2020/12/21 11:39:11;;;;;;;13.62;7.80;;;;;;;10.96;86.87;99208.75;4409696;32;20133;-71
2020/12/21 11:41:36;;;;;;;16.70;8.98;;;;;;;10.95;87.06;99201.59;4410737;32;20018;-70
2020/12/21 11:44:02;;;;;;;10.45;7.32;;;;;;;10.91;87.26;99198.94;4409103;32;20746;-73
2020/12/21 11:46:32;;;;;;;12.60;7.25;;;;;;;10.89;85.90;99211.94;4410915;32;20116;-72
2020/12/21 11:48:58;;;;;;;13.60;8.20;;;;;;;10.96;86.78;99201.13;4410844;32;20102;-73